Time;durP1;ratioP1;P1;durP2;ratioP2;P2;SDS_P1;SDS_P2;PMS_P1;PMS_P2;Temp;Humidity;BMP_temperature;BMP_pressure;BME280_temperature;BME280_humidity;BME280_pressure;Samples;Min_cycle;Max_cycle;Signal;HPM_P1;HPM_P2
2022/02/09 00:02:34;;;;;;;;;25.50;22.00;;;;;21.96;43.82;102132.09;4922648;28;45353;-72
2022/02/09 00:05:15;;;;;;;;;21.25;20.25;;;;;21.96;43.72;102129.44;4923119;28;45302;-72
2022/02/09 00:07:59;;;;;;;;;22.25;19.25;;;;;21.96;43.91;102122.34;4909098;28;45486;-72
2022/02/09 00:10:27;;;;;;;;;23.00;21.50;;;;;21.95;43.53;102111.75;4906120;28;45796;-72
2022/02/09 00:13:23;;;;;;;;;25.75;23.00;;;;;21.96;43.81;102116.16;4897765;28;45629;-72
2022/02/09 00:16:28;;;;;;;;;24.00;21.25;;;;;21.95;43.62;102107.31;4911272;28;45290;-72
2022/02/09 00:18:46;;;;;;;;;19.75;19.50;;;;;21.96;43.65;102106.41;4914983;28;45263;-72
2022/02/09 00:23:59;;;;;;;;;22.25;19.00;;;;;21.94;43.70;102097.56;4906353;28;45318;-72
2022/02/09 00:42:46;;;;;;;;;16.75;16.00;;;;;21.93;44.06;102089.63;4909016;28;46165;-72
2022/02/09 01:33:00;;;;;;;;;20.25;20.25;;;;;21.90;44.43;102079.94;4882849;28;45366;-72
2022/02/09 01:39:54;;;;;;;;;21.50;19.25;;;;;21.88;44.31;102067.56;4889193;29;45694;-72
2022/02/09 01:55:43;;;;;;;;;21.25;21.25;;;;;21.86;44.08;102064.94;4885179;29;45495;-71
2022/02/09 01:58:09;;;;;;;;;24.25;23.25;;;;;21.87;44.04;102074.66;4855449;29;45506;-72
2022/02/09 02:00:34;;;;;;;;;22.25;20.00;;;;;21.87;43.79;102074.66;4855110;29;48393;-72
2022/02/09 02:02:59;;;;;;;;;20.50;19.00;;;;;21.87;43.67;102069.34;4861986;29;45927;-72
2022/02/09 02:05:25;;;;;;;;;26.00;20.75;;;;;21.87;44.00;102072.00;4882139;28;45334;-72
2022/02/09 02:07:55;;;;;;;;;21.00;18.75;;;;;21.87;43.78;102069.34;4889363;28;45269;-72
2022/02/09 02:10:39;;;;;;;;;21.25;20.25;;;;;21.87;43.65;102069.34;4874276;28;47128;-72
2022/02/09 02:13:29;;;;;;;;;22.50;19.50;;;;;21.87;43.89;102069.34;4900021;28;45471;-72
2022/02/09 02:16:17;;;;;;;;;20.25;18.25;;;;;21.87;44.23;102064.00;4889346;28;45581;-72
2022/02/09 02:18:47;;;;;;;;;19.75;19.75;;;;;21.87;44.22;102060.47;4914324;28;45244;-73
2022/02/09 02:24:09;;;;;;;;;21.75;21.00;;;;;21.86;44.16;102056.94;4905222;28;45543;-70
2022/02/09 02:36:56;;;;;;;;;19.75;18.75;;;;;21.85;44.04;102033.06;4921011;28;45234;-72
2022/02/09 02:39:39;;;;;;;;;22.25;20.50;;;;;21.85;44.19;102023.31;4921854;28;45326;-72
2022/02/09 03:12:06;;;;;;;;;23.75;22.75;;;;;21.83;44.09;101993.22;4898310;29;45353;-72
2022/02/09 03:14:26;;;;;;;;;20.75;17.75;;;;;21.82;44.07;101986.16;4915175;28;45469;-73
2022/02/09 03:17:00;;;;;;;;;19.50;16.50;;;;;21.82;44.03;101979.97;4906167;28;45419;-72
2022/02/09 03:22:11;;;;;;;;;21.25;19.25;;;;;21.81;44.28;101970.25;4923198;28;45450;-72
2022/02/09 03:27:29;;;;;;;;;22.25;15.25;;;;;21.81;44.19;101962.28;4907563;28;45266;-72
2022/02/09 03:51:50;;;;;;;;;21.25;20.00;;;;;21.79;44.29;101933.03;4907136;28;45231;-72
2022/02/09 03:57:23;;;;;;;;;22.25;20.25;;;;;21.79;44.15;101938.34;4895842;28;45566;-72
2022/02/09 03:59:48;;;;;;;;;19.00;19.00;;;;;21.79;43.80;101938.34;4908739;28;45479;-72
2022/02/09 04:02:14;;;;;;;;;21.50;20.75;;;;;21.79;44.49;101927.72;4907184;28;45345;-72
2022/02/09 04:04:39;;;;;;;;;20.25;19.25;;;;;21.80;44.29;101928.59;4922321;28;61486;-72
2022/02/09 04:07:07;;;;;;;;;19.50;18.25;;;;;21.77;44.13;101928.66;4923711;28;46160;-72
2022/02/09 04:09:34;;;;;;;;;21.75;18.75;;;;;21.79;43.91;101927.72;4891385;28;45473;-72
2022/02/09 04:15:03;;;;;;;;;21.00;16.25;;;;;21.77;44.40;101910.06;4888769;28;45262;-72
2022/02/09 04:17:37;;;;;;;;;18.50;16.50;;;;;21.78;44.42;101923.31;4908716;28;46902;-72
2022/02/09 04:38:53;;;;;;;;;22.25;20.50;;;;;21.75;44.09;101917.19;4922273;28;45340;-72
2022/02/09 04:44:07;;;;;;;;;19.00;17.50;;;;;21.77;44.01;101907.41;4907612;28;45353;-72
2022/02/09 04:57:12;;;;;;;;;20.00;17.50;;;;;21.81;44.45;101917.09;4906641;28;45560;-72
2022/02/09 05:00:07;;;;;;;;;15.75;15.50;;;;;21.81;43.75;101917.97;4909264;28;45396;-72
2022/02/09 05:21:37;;;;;;;;;18.00;16.75;;;;;21.85;44.02;101924.09;4921482;28;45370;-72
2022/02/09 05:26:59;;;;;;;;;16.75;14.00;;;;;21.86;43.95;101932.03;4908499;28;45319;-72
2022/02/09 05:29:26;;;;;;;;;17.00;15.75;;;;;21.87;43.53;101936.44;4893206;28;45586;-72
2022/02/09 05:31:52;;;;;;;;;17.50;14.75;;;;;21.87;43.75;101936.44;4906055;28;48055;-72
2022/02/09 05:34:17;;;;;;;;;15.75;15.75;;;;;21.88;44.06;101934.66;4905194;28;58467;-72
2022/02/09 05:36:42;;;;;;;;;16.50;14.50;;;;;21.88;43.86;101938.19;4889493;28;47225;-72
2022/02/09 05:39:08;;;;;;;;;12.75;12.75;;;;;21.89;44.00;101939.97;4921009;28;57766;-72
2022/02/09 05:41:41;;;;;;;;;14.00;14.00;;;;;21.90;44.00;101941.72;4904841;28;64017;-72
2022/02/09 05:44:06;;;;;;;;;15.50;15.25;;;;;21.91;44.08;101931.97;4906476;28;45684;-72
2022/02/09 05:52:17;;;;;;;;;16.25;15.25;;;;;21.91;44.26;101921.34;4907829;28;45926;-72
2022/02/09 05:55:08;;;;;;;;;19.75;16.00;;;;;21.92;44.27;101931.06;4882796;28;45833;-72
2022/02/09 05:57:43;;;;;;;;;18.00;15.00;;;;;21.93;44.11;101920.38;4907486;28;45461;-72
2022/02/09 06:00:09;;;;;;;;;15.25;14.75;;;;;21.94;43.89;101927.44;4907641;28;45394;-72
2022/02/09 06:02:35;;;;;;;;;15.00;13.25;;;;;21.94;43.96;101932.75;4889562;28;47299;-72
2022/02/09 06:05:01;;;;;;;;;21.25;17.25;;;;;21.95;44.13;101930.97;4920464;28;66429;-72
2022/02/09 06:07:27;;;;;;;;;16.50;14.50;;;;;21.95;44.05;101934.50;4889593;28;45437;-72
2022/02/09 06:09:52;;;;;;;;;17.50;16.25;;;;;21.96;44.30;101940.72;4921425;28;45324;-72
2022/02/09 06:12:25;;;;;;;;;16.25;14.75;;;;;21.96;44.92;101938.06;4878576;28;45289;-72
2022/02/09 06:20:18;;;;;;;;;19.50;19.25;;;;;22.34;45.61;101942.66;4905052;28;45355;-74
2022/02/09 06:22:44;;;;;;;;;18.50;18.00;;;;;22.54;46.19;101935.13;4869861;29;47256;-71
2022/02/09 06:25:09;;;;;;;;;22.25;21.00;;;;;22.71;45.18;101941.88;4870177;29;45348;-73
2022/02/09 06:27:34;;;;;;;;;24.00;21.50;;;;;22.83;45.66;101941.59;4855133;29;45407;-71
2022/02/09 06:30:00;;;;;;;;;22.75;19.00;;;;;22.91;45.17;101941.47;4885635;29;55735;-72
2022/02/09 06:32:27;;;;;;;;;20.25;18.00;;;;;22.95;45.20;101945.81;4902896;29;46235;-72
2022/02/09 06:34:52;;;;;;;;;19.75;19.25;;;;;22.96;45.51;101934.25;4886217;29;45195;-71
2022/02/09 06:37:23;;;;;;;;;24.50;18.50;;;;;22.95;44.89;101936.03;4902415;29;51999;-72
2022/02/09 06:39:55;;;;;;;;;18.75;17.00;;;;;22.93;45.10;101935.19;4902659;29;45389;-71
2022/02/09 06:42:24;;;;;;;;;17.50;16.75;;;;;22.90;45.26;101935.25;4870859;29;47547;-72
2022/02/09 06:44:56;;;;;;;;;19.75;19.00;;;;;22.87;45.43;101932.69;4902680;29;45275;-71
2022/02/09 06:47:25;;;;;;;;;27.25;22.00;;;;;22.83;44.65;101930.94;4871269;29;45909;-70
2022/02/09 06:50:07;;;;;;;;;15.50;14.25;;;;;22.78;44.97;101948.81;4877224;28;46374;-70
2022/02/09 06:52:32;;;;;;;;;22.00;18.25;;;;;22.71;43.12;101944.53;4877271;28;47471;-70
2022/02/09 07:00:14;;;;;;;;;21.25;20.50;;;;;22.44;41.09;101938.03;4890691;28;45289;-69
2022/02/09 07:02:41;;;;;;;;;21.25;20.00;;;;;22.36;41.37;101940.84;4873146;28;48805;-70
2022/02/09 07:05:10;;;;;;;;;19.00;18.75;;;;;22.34;40.91;101944.44;4873571;28;45349;-71
2022/02/09 07:07:35;;;;;;;;;17.50;17.25;;;;;22.32;41.52;101946.25;4888941;28;45369;-69
2022/02/09 07:10:01;;;;;;;;;21.25;19.00;;;;;22.31;41.11;101947.16;4904528;28;45514;-71
2022/02/09 07:12:27;;;;;;;;;24.00;18.50;;;;;22.28;41.71;101946.31;4876387;28;46180;-71
2022/02/09 07:14:54;;;;;;;;;19.25;17.75;;;;;22.26;41.49;101941.94;4888601;28;45395;-71
2022/02/09 07:17:19;;;;;;;;;22.75;19.00;;;;;22.23;41.51;101942.84;4905021;28;45275;-71
2022/02/09 07:19:53;;;;;;;;;19.50;17.50;;;;;22.22;42.09;101949.09;4894273;28;45410;-70
2022/02/09 07:22:24;;;;;;;;;17.00;16.25;;;;;22.23;42.01;101950.84;4905339;28;45258;-71
2022/02/09 07:24:51;;;;;;;;;23.00;19.50;;;;;22.24;42.50;101957.94;4904841;28;45721;-72
2022/02/09 07:27:38;;;;;;;;;13.50;13.50;;;;;22.23;42.78;101958.81;4920617;28;45199;-69
2022/02/09 07:30:04;;;;;;;;;20.50;17.00;;;;;22.22;42.51;101957.06;4907052;28;45266;-69
2022/02/09 07:32:29;;;;;;;;;20.00;17.50;;;;;22.21;43.17;101957.97;4888511;28;47305;-69
2022/02/09 07:34:55;;;;;;;;;22.25;18.50;;;;;22.19;43.23;101956.25;4890713;28;64236;-69
2022/02/09 07:37:20;;;;;;;;;24.25;21.00;;;;;22.17;42.74;101950.09;4907196;28;45298;-69
2022/02/09 07:39:46;;;;;;;;;20.50;19.50;;;;;22.15;42.74;101950.16;4923024;28;45340;-69
2022/02/09 07:42:14;;;;;;;;;22.25;18.75;;;;;22.13;43.14;101949.28;4906836;28;60145;-68
2022/02/09 07:44:53;;;;;;;;;21.75;17.00;;;;;22.14;43.25;101944.81;4923162;28;45554;-68
2022/02/09 07:52:49;;;;;;;;;21.25;18.75;;;;;22.18;42.51;101949.19;4907837;28;45993;-69
2022/02/09 07:55:14;;;;;;;;;26.00;21.25;;;;;22.14;40.66;101942.16;4908760;28;45368;-74
2022/02/09 07:57:40;;;;;;;;;26.50;23.50;;;;;22.09;39.66;101941.41;4906594;28;59391;-74
2022/02/09 08:00:08;;;;;;;;;25.25;23.50;;;;;22.07;40.64;101941.44;4922438;28;63295;-72
2022/02/09 08:02:34;;;;;;;;;27.25;25.00;;;;;22.06;39.86;101941.41;4923976;28;45362;-72
2022/02/09 08:04:59;;;;;;;;;28.75;27.75;;;;;22.02;41.03;101944.13;4906875;28;45391;-73
2022/02/09 08:07:24;;;;;;;;;26.50;25.75;;;;;21.94;39.49;101932.75;4922339;28;48771;-73
2022/02/09 08:09:50;;;;;;;;;26.75;24.25;;;;;21.89;39.04;101939.06;4922306;28;45305;-74
2022/02/09 08:12:49;;;;;;;;;31.25;27.75;;;;;21.83;38.62;101937.41;4887367;29;46172;-72
2022/02/09 08:34:08;;;;;;;;;29.00;23.75;;;;;21.31;38.08;101924.16;4880184;29;45404;-71
2022/02/09 08:36:33;;;;;;;;;28.75;25.25;;;;;21.28;37.82;101926.84;4888290;28;45308;-71
2022/02/09 08:38:58;;;;;;;;;24.50;22.00;;;;;21.25;37.66;101925.09;4923102;28;45441;-71
2022/02/09 08:41:24;;;;;;;;;22.25;21.75;;;;;21.25;38.00;101929.53;4890310;28;45598;-70
2022/02/09 08:43:49;;;;;;;;;29.00;24.00;;;;;21.25;37.67;101924.22;4905917;28;46039;-70
2022/02/09 08:46:16;;;;;;;;;27.25;26.00;;;;;21.24;37.95;101925.13;4905445;28;65096;-70
2022/02/09 08:48:42;;;;;;;;;25.50;24.00;;;;;21.22;37.62;101919.84;4923508;28;45395;-70
2022/02/09 08:51:07;;;;;;;;;25.75;23.00;;;;;21.26;38.13;101920.66;4905628;28;45482;-70
2022/02/09 08:53:36;;;;;;;;;23.50;22.25;;;;;21.28;37.58;101913.56;4891345;28;46569;-72
2022/02/09 08:56:07;;;;;;;;;26.50;24.00;;;;;21.26;37.36;101910.91;4879553;28;45428;-72
2022/02/09 08:58:33;;;;;;;;;29.50;24.25;;;;;21.26;37.06;101907.38;4908956;28;45327;-72
2022/02/09 09:01:08;;;;;;;;;21.75;20.50;;;;;21.22;37.53;101908.34;4922990;28;45342;-72
2022/02/09 09:03:42;;;;;;;;;27.50;26.50;;;;;21.20;36.77;101897.75;4907116;28;45559;-71
2022/02/09 09:06:10;;;;;;;;;29.75;25.25;;;;;21.17;37.24;101911.94;4891094;28;45482;-70
2022/02/09 09:08:43;;;;;;;;;27.25;18.50;;;;;21.13;37.24;101894.31;4890872;28;45312;-70
2022/02/09 09:19:24;;;;;;;;;23.50;19.75;;;;;21.21;37.28;101880.91;4928249;28;45410;-72
2022/02/09 10:14:10;;;;;;;;;90.50;69.50;;;;;21.33;37.59;101870.09;4919442;28;45414;-70
2022/02/09 10:31:03;;;;;;;;;49.75;39.50;;;;;21.39;42.20;101877.09;4926075;28;45718;-70
2022/02/09 10:33:14;;;;;;;;;44.25;35.25;;;;;21.64;42.40;101870.44;4921543;28;45400;-70
2022/02/09 10:36:01;;;;;;;;;32.25;28.75;;;;;21.70;40.81;101872.09;4920973;28;45451;-67
2022/02/09 10:38:34;;;;;;;;;33.50;29.75;;;;;21.78;40.25;101875.47;4920447;28;46151;-70
2022/02/09 10:41:27;;;;;;;;;33.25;29.50;;;;;21.84;39.35;101872.72;4921289;28;46246;-70
2022/02/09 10:44:03;;;;;;;;;35.75;29.50;;;;;21.89;39.07;101875.28;4920341;28;46037;-70
2022/02/09 10:46:29;;;;;;;;;34.25;31.25;;;;;21.90;38.03;101867.28;4921580;28;45347;-72
2022/02/09 10:48:57;;;;;;;;;34.00;30.50;;;;;21.87;38.06;101866.47;4904660;28;45276;-72
2022/02/09 10:51:28;;;;;;;;;33.50;28.75;;;;;21.85;38.24;101858.53;4904722;28;45394;-72
2022/02/09 10:54:10;;;;;;;;;31.00;24.75;;;;;21.87;37.96;101856.69;4920561;28;46540;-72
2022/02/09 10:56:44;;;;;;;;;27.75;26.25;;;;;21.87;37.43;101848.72;4920371;28;45468;-73
2022/02/09 10:59:11;;;;;;;;;38.25;29.75;;;;;21.84;37.42;101854.13;4920132;28;45429;-71
2022/02/09 11:01:37;;;;;;;;;24.25;23.75;;;;;21.82;36.98;101849.75;4889729;28;47217;-72
2022/02/09 11:04:03;;;;;;;;;35.50;29.25;;;;;21.79;38.67;101844.47;4888614;28;45283;-71
2022/02/09 11:06:31;;;;;;;;;25.00;24.00;;;;;21.80;38.66;101838.25;4888500;28;45337;-73
2022/02/09 11:08:56;;;;;;;;;27.75;24.75;;;;;21.83;38.35;101835.53;4890040;28;45570;-73
2022/02/09 11:11:22;;;;;;;;;27.75;23.00;;;;;21.84;37.84;101829.31;4896560;28;49272;-76
2022/02/09 11:13:48;;;;;;;;;29.00;23.00;;;;;21.81;37.19;101845.34;4917959;28;45443;-73
2022/02/09 11:16:13;;;;;;;;;23.50;22.50;;;;;21.76;36.88;101840.09;4915151;28;45304;-72
2022/02/09 11:18:39;;;;;;;;;27.50;26.00;;;;;21.72;36.81;101827.78;4912270;28;55765;-74
2022/02/09 11:21:08;;;;;;;;;23.00;22.75;;;;;21.70;37.41;101833.13;4907093;28;46488;-71
2022/02/09 11:26:44;;;;;;;;;28.50;26.75;;;;;21.73;37.10;101829.53;4924631;28;45272;-71
2022/02/09 11:35:04;;;;;;;;;31.50;25.50;;;;;21.74;35.75;101812.69;4924469;28;45552;-72
2022/02/09 11:37:43;;;;;;;;;27.75;25.75;;;;;21.67;35.70;101806.63;4922395;28;45550;-73
2022/02/09 11:43:43;;;;;;;;;27.75;26.50;;;;;21.59;36.29;101803.22;4905983;28;45542;-71
2022/02/09 11:51:35;;;;;;;;;27.75;22.50;;;;;21.53;36.29;101808.66;4922536;28;45778;-72
2022/02/09 12:11:33;;;;;;;;;25.50;24.50;;;;;21.33;35.82;101781.59;4913331;28;45430;-73
2022/02/09 12:14:03;;;;;;;;;21.50;21.50;;;;;21.28;36.09;101776.38;4923453;28;45396;-76
2022/02/09 12:16:36;;;;;;;;;27.00;23.75;;;;;21.27;35.95;101773.75;4923085;28;45374;-75
2022/02/09 12:19:06;;;;;;;;;24.00;20.00;;;;;21.25;35.78;101773.75;4929384;28;45465;-75
2022/02/09 12:21:45;;;;;;;;;22.75;20.75;;;;;21.25;35.84;101770.22;4907580;28;45353;-75
2022/02/09 12:24:32;;;;;;;;;21.50;17.25;;;;;21.23;36.03;101761.41;4922716;28;45315;-76
2022/02/09 12:27:05;;;;;;;;;20.00;17.50;;;;;21.20;36.09;101767.66;4906193;28;47112;-76
2022/02/09 12:29:38;;;;;;;;;20.50;17.50;;;;;21.22;36.42;101763.19;4906007;28;45722;-75
2022/02/09 12:32:16;;;;;;;;;23.75;21.00;;;;;21.21;36.43;101756.13;4906662;28;45381;-74
2022/02/09 12:35:05;;;;;;;;;24.75;20.00;;;;;21.22;36.20;101752.56;4920571;28;45489;-75
2022/02/09 12:37:35;;;;;;;;;18.75;17.25;;;;;21.24;36.63;101752.53;4906889;28;47206;-75
2022/02/09 12:40:09;;;;;;;;;24.25;19.25;;;;;21.24;36.41;101748.09;4906630;28;45394;-75
2022/02/09 12:42:35;;;;;;;;;20.75;19.00;;;;;21.25;37.03;101747.19;4923281;28;45368;-75
2022/02/09 12:45:07;;;;;;;;;19.75;17.25;;;;;21.29;37.28;101742.75;4923147;28;45433;-75
2022/02/09 12:47:36;;;;;;;;;21.50;20.75;;;;;21.31;37.03;101740.94;4923204;28;45654;-75
2022/02/09 12:50:05;;;;;;;;;24.50;22.25;;;;;21.28;36.22;101735.66;4922179;28;45212;-76
2022/02/09 12:52:32;;;;;;;;;20.50;19.50;;;;;21.25;36.48;101728.59;4906215;28;45266;-75
2022/02/09 12:55:05;;;;;;;;;21.75;18.00;;;;;21.23;36.18;101733.06;4890264;28;45545;-75
2022/02/09 12:57:58;;;;;;;;;24.00;21.75;;;;;21.19;36.10;101726.06;4921581;28;46255;-76
2022/02/09 13:00:43;;;;;;;;;27.25;22.75;;;;;21.16;36.59;101721.69;4895542;29;45872;-77
2022/02/09 13:03:19;;;;;;;;;19.50;19.50;;;;;21.16;36.29;101723.47;4908332;28;45239;-76
2022/02/09 13:05:51;;;;;;;;;25.50;21.50;;;;;21.14;36.27;101719.97;4905812;28;45463;-75
2022/02/09 13:08:20;;;;;;;;;25.50;23.00;;;;;21.13;36.68;101716.44;4922787;28;45363;-75
2022/02/09 13:10:46;;;;;;;;;21.00;20.00;;;;;21.12;36.98;101711.19;4922635;28;45501;-75
2022/02/09 13:13:20;;;;;;;;;23.75;21.00;;;;;21.15;36.83;101711.09;4921973;28;45393;-75
2022/02/09 13:18:38;;;;;;;;;24.75;21.25;;;;;21.19;37.31;101696.84;4911646;28;46206;-75
2022/02/09 14:03:17;;;;;;;;;18.25;17.50;;;;;21.23;37.58;101653.44;4920944;28;46222;-72
2022/02/09 14:13:57;;;;;;;;;17.25;14.75;;;;;21.38;37.62;101642.53;4893501;28;45435;-72
2022/02/09 14:54:50;;;;;;;;;73.25;57.00;;;;;21.86;37.01;101618.41;4862150;29;45320;-75
2022/02/09 14:57:24;;;;;;;;;69.25;53.00;;;;;21.82;36.77;101619.41;4906627;28;45549;-74
2022/02/09 15:16:02;;;;;;;;;46.75;37.25;;;;;21.75;36.83;101593.00;4881411;29;45320;-81
2022/02/09 15:23:37;;;;;;;;;34.25;28.75;;;;;21.74;36.00;101589.50;4904223;28;45616;-83
2022/02/09 15:26:04;;;;;;;;;36.50;32.25;;;;;21.73;36.43;101588.63;4904407;28;45272;-81
2022/02/09 15:28:29;;;;;;;;;38.50;31.00;;;;;21.72;36.42;101586.00;4919436;28;45731;-82
2022/02/09 15:31:09;;;;;;;;;29.00;24.50;;;;;21.72;36.00;101586.00;4903767;28;47257;-83
2022/02/09 15:33:45;;;;;;;;;42.50;34.00;;;;;21.69;36.71;101588.72;4906137;28;45432;-83
2022/02/09 15:36:14;;;;;;;;;34.50;30.75;;;;;21.67;36.06;101585.22;4904927;28;45623;-82
2022/02/09 15:38:46;;;;;;;;;39.00;31.25;;;;;21.66;36.35;101583.47;4904372;28;45722;-81
2022/02/09 16:05:37;;;;;;;;;13.25;12.75;;;;;21.16;34.07;101558.88;4923412;28;45364;-83
2022/02/09 16:21:40;;;;;;;;;14.25;12.75;;;;;20.68;34.09;101543.09;4923781;28;45239;-83
2022/02/09 16:24:01;;;;;;;;;12.25;12.00;;;;;20.68;34.37;101545.72;4910895;28;45409;-84
2022/02/09 16:45:23;;;;;;;;;16.50;14.00;;;;;20.74;35.49;101536.75;4880650;28;45309;-83
2022/02/09 16:50:15;;;;;;;;;15.25;15.25;;;;;20.86;36.54;101533.88;4921914;28;45487;-80
2022/02/09 16:52:58;;;;;;;;;20.50;17.50;;;;;20.92;35.84;101532.84;4907214;28;45248;-78
2022/02/09 16:55:54;;;;;;;;;20.00;17.75;;;;;20.94;36.12;101533.69;4894208;28;45406;-79
2022/02/09 17:19:52;;;;;;;;;22.00;17.75;;;;;20.99;36.87;101514.13;4881745;29;45403;-79
2022/02/09 17:22:17;;;;;;;;;19.50;17.00;;;;;21.00;36.73;101507.03;4870868;29;45475;-77
2022/02/09 17:24:43;;;;;;;;;18.50;16.00;;;;;20.99;36.84;101511.47;4868412;28;48643;-78
2022/02/09 17:27:16;;;;;;;;;15.75;14.00;;;;;21.01;38.17;101511.44;4890959;28;45540;-75
2022/02/09 17:35:07;;;;;;;;;16.75;15.75;;;;;21.26;40.89;101517.06;4905275;28;45384;-74
2022/02/09 17:53:37;;;;;;;;;18.00;15.75;;;;;21.69;41.53;101524.94;4894548;28;45398;-79
2022/02/09 17:56:20;;;;;;;;;18.00;15.00;;;;;21.73;41.48;101516.00;4872989;28;47022;-73
2022/02/09 17:58:49;;;;;;;;;21.25;16.50;;;;;21.80;41.04;101524.66;4894050;29;45300;-77
2022/02/09 18:01:16;;;;;;;;;16.25;15.50;;;;;21.82;40.91;101517.56;4903603;29;45454;-81
2022/02/09 18:03:42;;;;;;;;;19.25;15.50;;;;;21.84;40.93;101527.22;4870611;29;45427;-82
2022/02/09 18:06:15;;;;;;;;;17.75;15.50;;;;;21.88;41.12;101526.22;4902359;29;45372;-81
2022/02/09 18:08:54;;;;;;;;;18.50;16.50;;;;;21.90;40.90;101527.09;4902948;29;45420;-82
2022/02/09 18:34:57;;;;;;;;;15.25;13.00;;;;;21.93;41.28;101524.34;4921493;28;45442;-75
2022/02/09 18:43:08;;;;;;;;;24.75;20.00;;;;;21.65;39.13;101525.94;4907264;28;45307;-81
2022/02/09 18:59:28;;;;;;;;;23.25;22.00;;;;;21.29;43.86;101507.31;4920421;28;45709;-73
2022/02/09 19:33:25;;;;;;;;;25.50;21.25;;;;;21.50;39.02;101473.19;4923578;28;45392;-91
2022/02/09 19:51:40;;;;;;;;;22.75;21.75;;;;;21.46;39.34;101472.41;4923316;28;46089;-90
2022/02/09 19:54:27;;;;;;;;;24.00;21.50;;;;;21.45;39.03;101463.53;4909254;28;45468;-87
2022/02/09 19:57:00;;;;;;;;;29.25;22.75;;;;;21.43;38.77;101461.81;4896539;28;45423;-84
2022/02/09 19:59:26;;;;;;;;;29.50;24.25;;;;;21.41;38.93;101459.22;4919295;28;45223;-82
2022/02/09 20:01:53;;;;;;;;;31.50;30.25;;;;;21.39;39.23;101461.03;4907597;28;45573;-86
2022/02/09 20:04:19;;;;;;;;;33.75;30.25;;;;;21.38;39.62;101448.66;4923044;28;45469;-80
2022/02/09 20:06:45;;;;;;;;;29.50;26.50;;;;;21.38;39.14;101447.81;4922984;28;45372;-85
2022/02/09 20:09:10;;;;;;;;;29.50;27.75;;;;;21.38;39.30;101450.47;4924634;28;45612;-81
2022/02/09 20:11:38;;;;;;;;;28.75;26.25;;;;;21.38;38.91;101459.28;4910371;28;45450;-83
2022/02/09 20:14:04;;;;;;;;;32.50;28.50;;;;;21.37;39.11;101459.31;4906899;28;45200;-89
2022/02/09 20:16:29;;;;;;;;;29.50;24.25;;;;;21.35;39.05;101451.38;4921965;28;45538;-84
2022/02/09 20:18:55;;;;;;;;;28.25;27.25;;;;;21.34;39.28;101446.13;4928623;28;59255;-81
2022/02/09 20:21:23;;;;;;;;;35.75;30.00;;;;;21.32;39.03;101448.81;4921850;28;46539;-79
2022/02/09 20:23:50;;;;;;;;;34.75;28.75;;;;;21.32;39.49;101447.94;4907607;28;45345;-83
2022/02/09 20:26:16;;;;;;;;;32.75;26.50;;;;;21.33;39.76;101442.59;4891854;28;45367;-83
2022/02/09 20:28:48;;;;;;;;;31.00;30.50;;;;;21.34;39.18;101452.28;4922965;28;45288;-78
2022/02/09 20:31:18;;;;;;;;;47.75;38.25;;;;;21.32;39.28;101445.28;4923300;28;47197;-84
2022/02/09 20:33:49;;;;;;;;;39.50;33.50;;;;;21.30;39.48;101450.63;4925045;28;45346;-84
2022/02/09 20:36:17;;;;;;;;;35.00;31.00;;;;;21.27;39.61;101444.50;4922854;28;45296;-82
2022/02/09 20:38:45;;;;;;;;;43.75;34.25;;;;;21.29;39.92;101445.38;4923233;28;45193;-83
2022/02/09 20:41:12;;;;;;;;;36.50;33.50;;;;;21.28;40.20;101452.44;4908080;28;46406;-84
2022/02/09 20:43:57;;;;;;;;;42.50;35.50;;;;;21.27;39.68;101449.81;4923067;28;46408;-73
2022/02/09 20:46:25;;;;;;;;;40.00;33.25;;;;;21.23;41.48;101441.03;4922861;28;45481;-73
2022/02/09 20:48:50;;;;;;;;;44.75;34.50;;;;;21.25;42.29;101443.66;4906931;28;45461;-76
2022/02/09 20:51:15;;;;;;;;;38.75;32.75;;;;;21.25;41.82;101441.88;4890426;28;47618;-80
2022/02/09 20:53:41;;;;;;;;;39.50;34.50;;;;;21.27;41.99;101449.81;4922531;28;46026;-85
2022/02/09 20:56:06;;;;;;;;;42.50;33.50;;;;;21.27;41.59;101448.03;4906027;28;51725;-85
2022/02/09 20:58:35;;;;;;;;;44.00;34.25;;;;;21.26;41.34;101448.91;4922250;28;45390;-81
2022/02/09 21:01:06;;;;;;;;;35.25;32.25;;;;;21.24;41.95;101448.09;4922796;28;45919;-79
2022/02/09 21:08:40;;;;;;;;;41.50;32.50;;;;;21.20;41.16;101450.84;4922337;28;45329;-75
2022/02/09 21:19:34;;;;;;;;;33.75;28.75;;;;;21.14;40.76;101446.56;4889284;28;45509;-75
2022/02/09 21:52:13;;;;;;;;;37.50;34.00;;;;;21.10;43.72;101458.13;4918086;28;45393;-81
2022/02/09 22:01:51;;;;;;;;;38.25;33.00;;;;;21.09;42.70;101456.41;4922661;28;45194;-79
2022/02/09 22:16:23;;;;;;;;;34.25;31.25;;;;;21.00;42.57;101460.13;4921373;28;45264;-81
2022/02/09 22:28:40;;;;;;;;;34.25;32.50;;;;;20.84;42.46;101441.00;4907642;28;45335;-75
2022/02/09 22:55:35;;;;;;;;;35.50;31.50;;;;;20.79;42.12;101412.88;4907487;28;45452;-76
2022/02/09 22:58:05;;;;;;;;;32.75;31.25;;;;;20.78;42.07;101403.16;4889976;28;48100;-76
2022/02/09 23:01:18;;;;;;;;;36.50;33.00;;;;;20.77;42.19;101402.28;4920591;28;45321;-76
2022/02/09 23:09:12;;;;;;;;;41.25;34.50;;;;;20.77;42.15;101401.41;4907979;28;45987;-77
2022/02/09 23:14:05;;;;;;;;;39.00;33.00;;;;;20.76;42.40;101403.19;4919413;28;45444;-76
2022/02/09 23:20:11;;;;;;;;;38.75;33.50;;;;;20.80;42.47;101414.59;4929865;28;46075;-77
